createdAt,value
2023-11-03T00:00:39.782Z,5.88
2023-11-03T00:03:27.317Z,8.13
2023-11-03T00:05:54.686Z,9.18
2023-11-03T00:08:22.908Z,9.13
2023-11-03T00:10:51.128Z,6.60
2023-11-03T00:13:18.741Z,11.15
2023-11-03T00:15:46.074Z,8.77
2023-11-03T00:18:13.737Z,6.15
2023-11-03T00:20:41.812Z,8.02
2023-11-03T00:23:09.455Z,6.82
2023-11-03T00:25:36.786Z,7.53
2023-11-03T00:28:04.725Z,10.40
2023-11-03T00:30:32.063Z,9.07
2023-11-03T00:32:59.693Z,9.65
2023-11-03T00:35:27.105Z,7.05
2023-11-03T00:37:57.306Z,14.40
2023-11-03T00:40:25.370Z,12.27
2023-11-03T00:42:53.028Z,8.52
2023-11-03T00:45:20.357Z,10.40
2023-11-03T00:47:47.957Z,9.77
2023-11-03T00:50:15.370Z,7.80
2023-11-03T00:52:43.026Z,9.18
2023-11-03T00:55:10.493Z,11.38
2023-11-03T00:57:39.339Z,7.55
2023-11-03T01:00:07.360Z,10.35
2023-11-03T01:02:34.999Z,7.90
2023-11-03T01:05:02.480Z,9.07
2023-11-03T01:07:30.145Z,10.63
2023-11-03T01:09:57.488Z,5.60
2023-11-03T01:12:26.301Z,6.53
2023-11-03T01:14:56.591Z,7.57
2023-11-03T01:17:26.458Z,11.15
2023-11-03T01:19:54.020Z,11.75
2023-11-03T01:22:23.430Z,14.13
2023-11-03T01:24:53.683Z,6.53
2023-11-03T01:27:22.195Z,14.07
2023-11-03T01:29:53.349Z,13.57
2023-11-03T01:32:21.355Z,9.98
2023-11-03T01:34:48.825Z,8.68
2023-11-03T01:37:16.596Z,6.50
2023-11-03T01:39:43.935Z,9.95
2023-11-03T01:42:11.563Z,11.50
2023-11-03T01:44:38.885Z,11.60
2023-11-03T01:47:06.639Z,12.18
2023-11-03T01:49:34.483Z,7.82
2023-11-03T01:52:02.613Z,8.38
2023-11-03T01:54:30.133Z,8.27
2023-11-03T01:56:57.852Z,9.52
2023-11-03T01:59:25.999Z,7.88
2023-11-03T02:01:54.461Z,15.25
2023-11-03T02:04:23.000Z,12.80
2023-11-03T02:06:50.712Z,9.93
2023-11-03T02:09:18.110Z,9.98
2023-11-03T02:11:46.369Z,8.63
2023-11-03T02:14:13.650Z,5.95
2023-11-03T02:16:41.801Z,8.35
2023-11-03T02:19:16.176Z,9.52
2023-11-03T02:21:45.189Z,7.38
2023-11-03T02:24:13.028Z,10.48
2023-11-03T02:26:40.683Z,12.63
2023-11-03T02:29:10.179Z,9.93
2023-11-03T02:31:37.968Z,9.20
2023-11-03T02:34:05.488Z,12.68
2023-11-03T02:36:35.487Z,4.45
2023-11-03T02:39:02.838Z,9.38
2023-11-03T02:41:30.665Z,7.57
2023-11-03T02:43:57.998Z,6.00
2023-11-03T02:46:25.542Z,11.90
2023-11-03T02:48:52.987Z,7.20
2023-11-03T02:51:20.634Z,10.75
2023-11-03T02:53:47.922Z,7.10
2023-11-03T02:56:25.750Z,6.75
2023-11-03T02:58:53.477Z,7.70
2023-11-03T03:01:28.526Z,10.13
2023-11-03T03:03:56.009Z,13.18
2023-11-03T03:06:24.077Z,8.68
2023-11-03T03:08:51.767Z,13.35
2023-11-03T03:11:20.967Z,13.68
2023-11-03T03:13:48.267Z,8.85
2023-11-03T03:16:22.533Z,10.80
2023-11-03T03:18:50.121Z,7.55
2023-11-03T03:21:18.456Z,8.60
2023-11-03T03:23:45.936Z,6.75
2023-11-03T03:26:13.864Z,7.72
2023-11-03T03:28:41.179Z,10.45
2023-11-03T03:31:09.162Z,7.47
2023-11-03T03:33:37.474Z,8.60
2023-11-03T03:36:05.730Z,6.25
2023-11-03T03:38:33.202Z,7.88
2023-11-03T03:41:00.789Z,7.03
2023-11-03T03:43:28.042Z,10.40
2023-11-03T03:45:55.677Z,10.73
2023-11-03T03:48:23.027Z,9.32
2023-11-03T03:50:50.543Z,8.82
2023-11-03T03:53:17.810Z,10.20
2023-11-03T03:55:45.382Z,7.47
2023-11-03T03:58:12.772Z,8.32
2023-11-03T04:00:40.565Z,6.78
2023-11-03T04:03:08.062Z,11.25
2023-11-03T04:05:35.734Z,8.27
2023-11-03T04:08:03.056Z,12.48
2023-11-03T04:10:30.860Z,8.32
2023-11-03T04:12:58.777Z,12.20
2023-11-03T04:15:26.375Z,8.60
2023-11-03T04:17:53.745Z,11.65
2023-11-03T04:20:21.322Z,12.15
2023-11-03T04:22:48.644Z,11.98
2023-11-03T04:25:16.224Z,8.82
2023-11-03T04:27:43.734Z,8.82
2023-11-03T04:30:12.088Z,9.88
2023-11-03T04:32:39.382Z,9.60
2023-11-03T04:35:09.270Z,7.20
2023-11-03T04:37:36.992Z,8.98
2023-11-03T04:40:05.332Z,11.45
2023-11-03T04:42:32.685Z,8.68
2023-11-03T04:45:00.358Z,7.28
2023-11-03T04:47:27.693Z,10.10
2023-11-03T04:49:55.287Z,7.05
2023-11-03T04:52:23.247Z,6.38
2023-11-03T04:54:50.857Z,6.28
2023-11-03T04:57:19.583Z,6.38
2023-11-03T04:59:47.149Z,7.15
2023-11-03T05:02:14.560Z,9.32
2023-11-03T05:04:42.094Z,6.88
2023-11-03T05:07:09.458Z,6.88
2023-11-03T05:09:37.542Z,11.95
2023-11-03T05:12:05.432Z,7.97
2023-11-03T05:14:33.355Z,5.82
2023-11-03T05:17:01.015Z,9.73
2023-11-03T05:19:29.121Z,9.32
2023-11-03T05:21:56.513Z,8.32
2023-11-03T05:24:24.361Z,6.72
2023-11-03T05:26:51.615Z,9.40
2023-11-03T05:29:27.844Z,8.32
2023-11-03T05:31:55.760Z,11.00
2023-11-03T05:34:23.489Z,6.50
2023-11-03T05:36:53.611Z,10.93
2023-11-03T05:39:21.288Z,7.18
2023-11-03T05:41:49.143Z,6.15
2023-11-03T05:44:16.780Z,6.22
2023-11-03T05:46:44.306Z,5.68
2023-11-03T05:49:12.002Z,8.43
2023-11-03T05:51:40.190Z,9.23
2023-11-03T05:54:07.890Z,10.70
2023-11-03T05:56:35.199Z,8.00
2023-11-03T05:59:04.632Z,8.63
2023-11-03T06:01:34.567Z,7.18
2023-11-03T06:04:02.877Z,8.30
2023-11-03T06:06:31.474Z,8.10
2023-11-03T06:08:59.341Z,6.70
2023-11-03T06:11:26.940Z,8.93
2023-11-03T06:13:54.734Z,5.93
2023-11-03T06:16:22.582Z,6.93
2023-11-03T06:18:53.801Z,7.28
2023-11-03T06:21:21.728Z,6.40
2023-11-03T06:23:49.493Z,8.75
2023-11-03T06:26:17.622Z,7.20
2023-11-03T06:28:45.306Z,6.97
2023-11-03T06:31:12.640Z,8.38
2023-11-03T06:33:40.290Z,8.23
2023-11-03T06:36:08.096Z,7.38
2023-11-03T06:38:35.601Z,8.10
2023-11-03T06:41:04.872Z,11.10
2023-11-03T06:43:32.636Z,7.32
2023-11-03T06:45:59.954Z,10.27
2023-11-03T06:48:28.916Z,13.07
2023-11-03T06:50:56.244Z,14.35
2023-11-03T06:53:26.772Z,7.10
2023-11-03T06:55:54.481Z,9.82
2023-11-03T06:58:22.198Z,7.13
2023-11-03T07:00:49.668Z,7.20
2023-11-03T07:03:18.449Z,7.13
2023-11-03T07:05:47.477Z,8.77
2023-11-03T07:08:15.085Z,7.88
2023-11-03T07:10:42.870Z,9.65
2023-11-03T07:13:11.712Z,11.70
2023-11-03T07:15:39.530Z,6.85
2023-11-03T07:18:08.059Z,6.65
2023-11-03T07:20:35.562Z,7.50
2023-11-03T07:23:03.259Z,8.63
2023-11-03T07:25:30.642Z,12.50
2023-11-03T07:27:58.296Z,11.35
2023-11-03T07:30:25.636Z,10.43
2023-11-03T07:32:53.500Z,8.95
2023-11-03T07:35:21.459Z,7.97
2023-11-03T07:37:49.148Z,7.53
2023-11-03T07:40:16.559Z,7.68
2023-11-03T07:42:44.738Z,8.60
2023-11-03T07:45:12.555Z,12.95
2023-11-03T07:47:42.481Z,8.05
2023-11-03T07:50:10.389Z,6.43
2023-11-03T07:52:39.188Z,12.00
2023-11-03T07:55:07.183Z,7.28
2023-11-03T07:57:35.797Z,6.65
2023-11-03T08:00:05.590Z,8.93
2023-11-03T08:02:40.258Z,5.63
2023-11-03T08:05:08.384Z,8.50
2023-11-03T08:07:36.487Z,5.45
2023-11-03T08:10:04.781Z,6.25
2023-11-03T08:12:35.355Z,5.93
2023-11-03T08:15:10.832Z,6.38
2023-11-03T08:17:45.339Z,4.78
2023-11-03T08:20:15.665Z,7.82
2023-11-03T08:22:43.842Z,4.60
2023-11-03T08:25:13.242Z,8.00
2023-11-03T08:27:41.143Z,4.63
2023-11-03T08:30:10.048Z,11.55
2023-11-03T08:32:38.464Z,9.38
2023-11-03T08:35:07.060Z,8.40
2023-11-03T08:37:35.168Z,9.07
2023-11-03T08:40:05.082Z,9.82
2023-11-03T08:42:34.604Z,7.22
2023-11-03T08:45:02.193Z,9.77
2023-11-03T08:47:32.902Z,7.30
2023-11-03T08:50:03.884Z,4.63
2023-11-03T08:52:31.955Z,8.27
2023-11-03T08:54:59.816Z,6.63
2023-11-03T08:57:27.736Z,7.32
2023-11-03T08:59:55.194Z,6.00
2023-11-03T09:02:22.852Z,4.60
2023-11-03T09:04:50.534Z,6.03
2023-11-03T09:07:18.320Z,5.43
2023-11-03T09:09:45.690Z,6.97
2023-11-03T09:12:13.434Z,7.25
2023-11-03T09:14:44.631Z,18.85
2023-11-03T09:17:13.536Z,9.70
2023-11-03T09:19:41.121Z,5.07
2023-11-03T09:22:09.796Z,10.93
2023-11-03T09:24:37.140Z,6.07
2023-11-03T09:27:09.172Z,7.78
2023-11-03T09:29:37.435Z,9.93
2023-11-03T09:32:05.370Z,7.80
2023-11-03T09:34:32.878Z,6.57
2023-11-03T09:37:04.448Z,4.07
2023-11-03T09:39:37.035Z,7.53
2023-11-03T09:42:06.423Z,5.55
2023-11-03T09:44:34.726Z,7.78
2023-11-03T09:47:04.692Z,11.15
2023-11-03T09:49:33.159Z,7.13
2023-11-03T09:52:13.682Z,16.92
2023-11-03T09:54:42.207Z,8.25
2023-11-03T09:57:13.345Z,8.15
2023-11-03T09:59:41.937Z,6.93
2023-11-03T10:02:17.045Z,9.48
2023-11-03T10:04:44.592Z,5.00
2023-11-03T10:07:15.064Z,7.63
2023-11-03T10:09:43.973Z,8.00
2023-11-03T10:12:12.647Z,10.93
2023-11-03T10:14:42.797Z,7.15
2023-11-03T10:17:10.920Z,11.57
2023-11-03T10:19:39.647Z,8.70
2023-11-03T10:22:10.814Z,8.07
2023-11-03T10:24:40.305Z,7.30
2023-11-03T10:27:08.499Z,9.48
2023-11-03T10:29:36.129Z,7.07
2023-11-03T10:32:04.051Z,12.48
2023-11-03T10:34:33.149Z,10.13
2023-11-03T10:37:03.890Z,6.57
2023-11-03T10:39:32.026Z,8.93
2023-11-03T10:42:05.618Z,8.57
2023-11-03T10:44:34.777Z,13.25
2023-11-03T10:47:11.617Z,37.22
2023-11-03T10:49:42.282Z,36.97
2023-11-03T10:52:18.058Z,15.32
2023-11-03T10:55:01.792Z,17.50
2023-11-03T10:57:39.901Z,10.85
2023-11-03T11:00:14.133Z,4.80
2023-11-03T11:03:16.248Z,6.50
2023-11-03T11:05:59.084Z,9.05
2023-11-03T11:08:30.998Z,9.98
2023-11-03T11:11:00.813Z,9.20
2023-11-03T11:13:30.284Z,11.13
2023-11-03T11:15:57.748Z,16.52
2023-11-03T11:18:27.926Z,6.93
2023-11-03T11:20:57.846Z,18.05
2023-11-03T11:23:30.722Z,13.75
2023-11-03T11:25:58.080Z,14.50
2023-11-03T11:28:40.268Z,13.07
2023-11-03T11:31:25.328Z,10.52
2023-11-03T11:34:18.706Z,10.63
2023-11-03T11:36:48.535Z,14.10
2023-11-03T11:39:23.916Z,13.13
2023-11-03T11:42:01.455Z,15.57
2023-11-03T11:44:34.271Z,14.65
2023-11-03T11:47:02.535Z,16.55
2023-11-03T11:49:32.807Z,18.60
2023-11-03T11:52:01.936Z,12.70
2023-11-03T11:54:29.735Z,13.90
2023-11-03T11:56:58.050Z,9.88
2023-11-03T11:59:26.438Z,10.75
2023-11-03T12:01:54.978Z,11.63
2023-11-03T12:04:25.355Z,12.00
2023-11-03T12:06:53.545Z,13.25
2023-11-03T12:09:22.494Z,13.88
2023-11-03T12:11:49.953Z,10.63
2023-11-03T12:14:20.607Z,9.13
2023-11-03T12:16:53.250Z,8.93
2023-11-03T12:19:23.944Z,10.00
2023-11-03T12:21:52.620Z,10.15
2023-11-03T12:24:21.437Z,10.70
2023-11-03T12:26:48.938Z,17.38
2023-11-03T12:32:02.567Z,25.95
2023-11-03T12:34:35.326Z,13.93
2023-11-03T12:37:05.859Z,22.48
2023-11-03T12:39:53.883Z,13.82
2023-11-03T12:42:24.438Z,12.65
2023-11-03T12:45:03.397Z,19.85
2023-11-03T12:47:51.876Z,10.73
2023-11-03T12:50:23.368Z,11.07
2023-11-03T12:52:56.670Z,18.08
2023-11-03T12:55:27.582Z,18.48
2023-11-03T12:57:59.141Z,15.75
2023-11-03T13:00:33.129Z,17.53
2023-11-03T13:03:00.912Z,13.40
2023-11-03T13:05:33.246Z,20.03
2023-11-03T13:08:04.104Z,12.82
2023-11-03T13:10:33.130Z,12.25
2023-11-03T13:13:01.746Z,17.35
2023-11-03T13:15:30.162Z,15.85
2023-11-03T13:17:59.780Z,15.40
2023-11-03T13:20:50.024Z,15.55
2023-11-03T13:23:21.330Z,17.27
2023-11-03T13:25:51.292Z,11.18
2023-11-03T13:28:19.040Z,21.02
2023-11-03T13:30:48.325Z,16.65
2023-11-03T13:33:18.343Z,10.95
2023-11-03T13:35:47.018Z,15.57
2023-11-03T13:38:17.653Z,12.32
2023-11-03T13:40:51.625Z,17.65
2023-11-03T13:43:19.361Z,19.30
2023-11-03T13:45:47.060Z,10.45
2023-11-03T13:48:17.191Z,9.75
2023-11-03T13:50:46.046Z,10.35
2023-11-03T13:53:23.262Z,10.48
2023-11-03T13:55:52.631Z,11.93
2023-11-03T13:58:20.454Z,10.18
2023-11-03T14:00:51.211Z,14.00
2023-11-03T14:03:18.925Z,10.45
2023-11-03T14:05:47.276Z,14.13
2023-11-03T14:08:15.222Z,14.45
2023-11-03T14:10:43.061Z,10.73
2023-11-03T14:13:10.538Z,9.30
2023-11-03T14:15:44.612Z,12.93
2023-11-03T14:18:12.182Z,13.40
2023-11-03T14:20:40.041Z,13.23
2023-11-03T14:23:21.668Z,13.88
2023-11-03T14:25:50.010Z,10.17
2023-11-03T14:28:17.692Z,13.23
2023-11-03T14:30:48.086Z,14.75
2023-11-03T14:35:48.781Z,9.98
2023-11-03T14:38:16.832Z,10.38
2023-11-03T14:40:47.920Z,11.02
2023-11-03T14:43:17.263Z,14.98
2023-11-03T14:46:06.295Z,12.30
2023-11-03T14:48:35.420Z,11.63
2023-11-03T14:51:03.312Z,14.75
2023-11-03T14:53:34.015Z,12.13
2023-11-03T14:56:03.530Z,10.13
2023-11-03T14:58:30.847Z,9.77
2023-11-03T15:00:58.768Z,17.48
2023-11-03T15:03:26.247Z,12.50
2023-11-03T15:05:56.120Z,9.77
2023-11-03T15:08:26.307Z,11.82
2023-11-03T15:10:57.759Z,23.45
2023-11-03T15:13:25.164Z,12.15
2023-11-03T15:15:53.814Z,10.05
2023-11-03T15:18:21.844Z,15.32
2023-11-03T15:20:52.334Z,11.85
2023-11-03T15:23:19.679Z,19.17
2023-11-03T15:25:47.344Z,16.00
2023-11-03T15:28:20.320Z,15.57
2023-11-03T15:30:48.038Z,16.35
2023-11-03T15:33:15.358Z,10.40
2023-11-03T15:35:42.949Z,12.50
2023-11-03T15:38:21.072Z,16.90
2023-11-03T15:40:49.808Z,13.18
2023-11-03T15:43:17.516Z,15.40
2023-11-03T15:45:47.978Z,25.40
2023-11-03T15:48:16.533Z,15.52
2023-11-03T15:50:47.444Z,11.88
2023-11-03T15:53:17.677Z,16.35
2023-11-03T15:55:47.184Z,11.45
2023-11-03T15:58:18.880Z,14.88
2023-11-03T16:03:27.850Z,13.40
2023-11-03T16:05:55.636Z,15.20
2023-11-03T16:08:25.864Z,13.07
2023-11-03T16:10:53.701Z,17.20
2023-11-03T16:13:21.142Z,18.80
2023-11-03T16:15:48.720Z,15.00
2023-11-03T16:18:18.105Z,16.02
2023-11-03T16:20:47.377Z,14.50
2023-11-03T16:23:15.025Z,17.35
2023-11-03T16:25:45.818Z,16.23
2023-11-03T16:28:13.644Z,14.93
2023-11-03T16:30:41.425Z,19.75
2023-11-03T16:33:12.596Z,18.23
2023-11-03T16:35:40.322Z,15.30
2023-11-03T16:38:09.419Z,16.45
2023-11-03T16:40:41.337Z,20.20
2023-11-03T16:43:10.362Z,18.85
2023-11-03T16:45:38.202Z,22.92
2023-11-03T16:48:17.393Z,17.33
2023-11-03T16:50:51.823Z,16.63
2023-11-03T16:53:19.723Z,12.27
2023-11-03T16:55:51.519Z,14.02
2023-11-03T16:58:19.697Z,16.40
2023-11-03T17:00:53.201Z,29.83
2023-11-03T17:03:22.603Z,17.70
2023-11-03T17:05:52.655Z,21.08
2023-11-03T17:08:20.301Z,18.05
2023-11-03T17:10:48.044Z,17.27
2023-11-03T17:13:16.727Z,19.00
2023-11-03T17:15:45.825Z,19.45
2023-11-03T17:18:16.881Z,11.88
2023-11-03T17:20:45.515Z,16.45
2023-11-03T17:23:13.955Z,25.83
2023-11-03T17:25:42.583Z,15.40
2023-11-03T17:28:13.182Z,25.95
2023-11-03T17:30:41.048Z,31.90
2023-11-03T17:33:12.784Z,19.33
2023-11-03T17:35:40.693Z,19.45
2023-11-03T17:38:08.217Z,21.27
2023-11-03T17:40:37.983Z,13.77
2023-11-03T17:43:06.257Z,15.43
2023-11-03T17:45:34.031Z,19.80
2023-11-03T17:48:01.620Z,15.02
2023-11-03T17:50:29.489Z,16.95
2023-11-03T17:52:56.875Z,18.67
2023-11-03T17:55:25.059Z,13.82
2023-11-03T17:57:54.296Z,16.73
2023-11-03T18:00:24.836Z,14.63
2023-11-03T18:02:54.667Z,23.00
2023-11-03T18:05:23.706Z,16.60
2023-11-03T18:07:52.159Z,17.25
2023-11-03T18:10:21.526Z,17.50
2023-11-03T18:12:51.359Z,25.45
2023-11-03T18:15:22.299Z,16.67
2023-11-03T18:17:51.260Z,16.58
2023-11-03T18:20:19.517Z,21.02
2023-11-03T18:22:49.333Z,19.27
2023-11-03T18:25:24.272Z,21.17
2023-11-03T18:27:52.600Z,17.35
2023-11-03T18:30:23.484Z,13.57
2023-11-03T18:32:52.808Z,15.35
2023-11-03T18:35:20.649Z,14.02
2023-11-03T18:37:48.328Z,16.35
2023-11-03T18:40:18.137Z,18.38
2023-11-03T18:42:48.726Z,15.55
2023-11-03T18:45:16.815Z,26.33
2023-11-03T18:47:45.934Z,16.65
2023-11-03T18:52:48.871Z,21.42
2023-11-03T18:56:13.390Z,18.88
2023-11-03T18:58:31.717Z,19.75
2023-11-03T19:02:09.062Z,16.98
2023-11-03T19:08:42.992Z,21.45
2023-11-03T19:11:11.282Z,14.52
2023-11-03T19:13:39.966Z,20.02
2023-11-03T19:16:10.262Z,15.95
2023-11-03T19:18:37.998Z,19.10
2023-11-03T19:21:07.191Z,19.70
2023-11-03T19:23:35.775Z,20.92
2023-11-03T19:26:03.833Z,16.75
2023-11-03T19:28:33.685Z,15.82
2023-11-03T19:31:05.172Z,17.58
2023-11-03T19:33:35.074Z,17.83
2023-11-03T19:36:03.609Z,17.45
2023-11-03T19:38:31.124Z,14.77
2023-11-03T19:40:58.890Z,14.02
2023-11-03T19:43:26.303Z,17.80
2023-11-03T19:45:54.214Z,14.27
2023-11-03T19:48:22.796Z,12.05
2023-11-03T19:50:52.551Z,8.75
2023-11-03T19:53:23.541Z,14.30
2023-11-03T19:55:53.014Z,8.02
2023-11-03T19:58:20.682Z,7.93
2023-11-03T20:00:49.334Z,7.90
2023-11-03T20:03:17.119Z,11.88
2023-11-03T20:05:45.642Z,6.53
2023-11-03T20:08:13.309Z,8.38
2023-11-03T20:10:40.851Z,11.23
2023-11-03T20:13:08.316Z,10.02
2023-11-03T20:15:36.013Z,8.88
2023-11-03T20:18:04.748Z,12.65
2023-11-03T20:20:32.445Z,9.98
2023-11-03T20:23:00.914Z,8.13
2023-11-03T20:25:28.772Z,7.00
2023-11-03T20:27:56.307Z,6.38
2023-11-03T20:30:24.245Z,10.35
2023-11-03T20:32:52.478Z,7.93
2023-11-03T20:35:20.409Z,5.55
2023-11-03T20:37:47.883Z,6.25
2023-11-03T20:40:16.403Z,8.55
2023-11-03T20:42:43.753Z,6.78
2023-11-03T20:45:12.276Z,3.50
2023-11-03T20:50:14.252Z,4.18
2023-11-03T20:52:41.693Z,2.20
2023-11-03T20:55:09.846Z,2.63
2023-11-03T20:57:37.626Z,4.07
2023-11-03T21:00:07.410Z,3.50
2023-11-03T21:02:34.985Z,3.10
2023-11-03T21:05:03.753Z,1.58
2023-11-03T21:07:33.317Z,3.38
2023-11-03T21:10:02.054Z,2.28
2023-11-03T21:12:32.977Z,4.95
2023-11-03T21:15:00.650Z,5.78
2023-11-03T21:17:27.901Z,4.90
2023-11-03T21:19:56.025Z,5.43
2023-11-03T21:22:23.572Z,4.40
2023-11-03T21:24:51.418Z,3.15
2023-11-03T21:27:18.817Z,3.08
2023-11-03T21:29:46.560Z,3.45
2023-11-03T21:32:13.929Z,4.05
2023-11-03T21:34:41.977Z,3.40
2023-11-03T21:37:09.483Z,2.92
2023-11-03T21:39:37.037Z,6.45
2023-11-03T21:42:05.721Z,2.17
2023-11-03T21:44:34.579Z,5.13
2023-11-03T21:47:02.236Z,3.95
2023-11-03T21:49:29.864Z,3.33
2023-11-03T21:51:57.434Z,3.25
2023-11-03T21:54:25.159Z,3.05
2023-11-03T21:56:55.033Z,5.47
2023-11-03T21:59:22.805Z,3.80
2023-11-03T22:01:50.770Z,4.43
2023-11-03T22:04:19.986Z,3.05
2023-11-03T22:06:49.425Z,3.13
2023-11-03T22:09:17.411Z,4.13
2023-11-03T22:11:46.612Z,3.67
2023-11-03T22:14:14.262Z,4.30
2023-11-03T22:16:41.755Z,4.53
2023-11-03T22:19:09.454Z,4.25
2023-11-03T22:21:37.537Z,4.20
2023-11-03T22:24:05.717Z,3.35
2023-11-03T22:26:39.700Z,2.90
2023-11-03T22:29:12.098Z,5.03
2023-11-03T22:31:49.270Z,7.72
2023-11-03T22:34:18.900Z,3.08
2023-11-03T22:36:46.714Z,4.07
2023-11-03T22:39:14.908Z,6.90
2023-11-03T22:41:42.532Z,4.53
2023-11-03T22:44:10.143Z,4.68
2023-11-03T22:46:37.784Z,3.58
2023-11-03T22:49:06.204Z,2.17
2023-11-03T22:51:33.998Z,3.58
2023-11-03T22:54:02.872Z,3.78
2023-11-03T22:56:30.960Z,4.20
2023-11-03T22:59:02.281Z,2.20
2023-11-03T23:01:29.673Z,2.25
2023-11-03T23:03:57.384Z,1.50
2023-11-03T23:06:27.698Z,3.95
2023-11-03T23:08:58.630Z,2.63
2023-11-03T23:11:26.691Z,1.13
2023-11-03T23:13:54.740Z,1.40
2023-11-03T23:16:22.103Z,2.25
2023-11-03T23:18:51.398Z,2.35
2023-11-03T23:21:19.025Z,1.58
2023-11-03T23:23:48.404Z,1.75
2023-11-03T23:26:15.789Z,2.22
2023-11-03T23:28:43.393Z,4.20
2023-11-03T23:31:10.625Z,3.10
2023-11-03T23:33:38.581Z,1.13
2023-11-03T23:36:06.451Z,2.05
2023-11-03T23:38:34.115Z,1.40
2023-11-03T23:41:01.454Z,1.00
2023-11-03T23:43:29.086Z,2.00
2023-11-03T23:46:00.004Z,1.33
2023-11-03T23:48:29.832Z,2.03
2023-11-03T23:50:57.733Z,1.00
2023-11-03T23:53:25.252Z,1.38
2023-11-03T23:55:52.605Z,4.25
2023-11-03T23:58:21.119Z,3.05
